sensor_id;sensor_type;location;lat;lon;timestamp;temperature;humidity
31131;DHT22;20292;50.944;4.034;2022-10-31T00:03:44;16.80;99.90
31131;DHT22;20292;50.944;4.034;2022-10-31T00:06:10;16.70;99.90
31131;DHT22;20292;50.944;4.034;2022-10-31T00:08:35;16.60;99.90
31131;DHT22;20292;50.944;4.034;2022-10-31T00:11:01;16.60;99.90
31131;DHT22;20292;50.944;4.034;2022-10-31T00:13:27;16.50;99.90
31131;DHT22;20292;50.944;4.034;2022-10-31T00:15:52;16.50;99.90
31131;DHT22;20292;50.944;4.034;2022-10-31T00:18:18;16.40;99.90
31131;DHT22;20292;50.944;4.034;2022-10-31T00:20:44;16.40;99.90
31131;DHT22;20292;50.944;4.034;2022-10-31T00:23:10;16.40;99.90
31131;DHT22;20292;50.944;4.034;2022-10-31T00:25:38;16.30;99.90
31131;DHT22;20292;50.944;4.034;2022-10-31T00:28:06;16.30;99.90
31131;DHT22;20292;50.944;4.034;2022-10-31T00:30:32;16.20;99.90
31131;DHT22;20292;50.944;4.034;2022-10-31T00:32:58;16.20;99.90
31131;DHT22;20292;50.944;4.034;2022-10-31T00:35:24;16.10;99.90
31131;DHT22;20292;50.944;4.034;2022-10-31T00:37:49;16.10;99.90
31131;DHT22;20292;50.944;4.034;2022-10-31T00:40:15;16.20;99.90
31131;DHT22;20292;50.944;4.034;2022-10-31T00:42:41;16.00;99.90
31131;DHT22;20292;50.944;4.034;2022-10-31T00:45:11;16.00;99.90
31131;DHT22;20292;50.944;4.034;2022-10-31T00:47:37;15.90;99.90
31131;DHT22;20292;50.944;4.034;2022-10-31T00:50:06;15.90;99.90
31131;DHT22;20292;50.944;4.034;2022-10-31T00:52:32;15.90;99.90
31131;DHT22;20292;50.944;4.034;2022-10-31T00:54:58;15.80;99.90
31131;DHT22;20292;50.944;4.034;2022-10-31T00:57:23;15.80;99.90
31131;DHT22;20292;50.944;4.034;2022-10-31T00:59:49;15.80;99.90
31131;DHT22;20292;50.944;4.034;2022-10-31T01:02:15;15.70;99.90
31131;DHT22;20292;50.944;4.034;2022-10-31T01:04:41;15.80;99.90
31131;DHT22;20292;50.944;4.034;2022-10-31T01:07:07;15.80;99.90
31131;DHT22;20292;50.944;4.034;2022-10-31T01:09:33;15.80;99.90
31131;DHT22;20292;50.944;4.034;2022-10-31T01:11:58;15.80;99.90
31131;DHT22;20292;50.944;4.034;2022-10-31T01:14:24;15.80;99.90
31131;DHT22;20292;50.944;4.034;2022-10-31T01:16:50;15.70;99.90
31131;DHT22;20292;50.944;4.034;2022-10-31T01:19:15;15.70;99.90
31131;DHT22;20292;50.944;4.034;2022-10-31T01:21:41;15.60;99.90
31131;DHT22;20292;50.944;4.034;2022-10-31T01:24:07;15.60;99.90
31131;DHT22;20292;50.944;4.034;2022-10-31T01:26:33;15.40;99.90
31131;DHT22;20292;50.944;4.034;2022-10-31T01:29:05;15.50;99.90
31131;DHT22;20292;50.944;4.034;2022-10-31T01:31:36;15.50;99.90
31131;DHT22;20292;50.944;4.034;2022-10-31T01:34:02;15.50;99.90
31131;DHT22;20292;50.944;4.034;2022-10-31T01:36:29;15.40;99.90
31131;DHT22;20292;50.944;4.034;2022-10-31T01:39:01;15.50;99.90
31131;DHT22;20292;50.944;4.034;2022-10-31T01:41:30;15.50;99.90
31131;DHT22;20292;50.944;4.034;2022-10-31T01:46:24;15.40;99.90
31131;DHT22;20292;50.944;4.034;2022-10-31T01:48:52;15.40;99.90
31131;DHT22;20292;50.944;4.034;2022-10-31T01:51:20;15.30;99.90
31131;DHT22;20292;50.944;4.034;2022-10-31T01:53:48;15.30;99.90
31131;DHT22;20292;50.944;4.034;2022-10-31T01:56:16;15.30;99.90
31131;DHT22;20292;50.944;4.034;2022-10-31T01:58:45;15.20;99.90
31131;DHT22;20292;50.944;4.034;2022-10-31T02:01:12;15.10;99.90
31131;DHT22;20292;50.944;4.034;2022-10-31T02:03:38;15.10;99.90
31131;DHT22;20292;50.944;4.034;2022-10-31T02:06:07;15.10;99.90
31131;DHT22;20292;50.944;4.034;2022-10-31T02:08:37;15.00;99.90
31131;DHT22;20292;50.944;4.034;2022-10-31T02:11:05;15.00;99.90
31131;DHT22;20292;50.944;4.034;2022-10-31T02:13:33;15.00;99.90
31131;DHT22;20292;50.944;4.034;2022-10-31T02:16:00;15.10;99.90
31131;DHT22;20292;50.944;4.034;2022-10-31T02:18:29;15.00;99.90
31131;DHT22;20292;50.944;4.034;2022-10-31T02:34:19;14.90;99.90
31131;DHT22;20292;50.944;4.034;2022-10-31T02:36:54;14.90;99.90
31131;DHT22;20292;50.944;4.034;2022-10-31T02:39:23;14.80;99.90
31131;DHT22;20292;50.944;4.034;2022-10-31T02:42:02;14.80;99.90
31131;DHT22;20292;50.944;4.034;2022-10-31T02:44:50;14.80;99.90
31131;DHT22;20292;50.944;4.034;2022-10-31T02:47:19;14.80;99.90
31131;DHT22;20292;50.944;4.034;2022-10-31T02:49:56;14.80;99.90
31131;DHT22;20292;50.944;4.034;2022-10-31T02:52:31;14.70;99.90
31131;DHT22;20292;50.944;4.034;2022-10-31T02:54:57;14.70;99.90
31131;DHT22;20292;50.944;4.034;2022-10-31T02:57:25;14.70;99.90
31131;DHT22;20292;50.944;4.034;2022-10-31T02:59:59;14.80;99.90
31131;DHT22;20292;50.944;4.034;2022-10-31T03:05:41;14.70;99.90
31131;DHT22;20292;50.944;4.034;2022-10-31T03:11:08;14.70;99.90
31131;DHT22;20292;50.944;4.034;2022-10-31T03:13:41;14.80;99.90
31131;DHT22;20292;50.944;4.034;2022-10-31T03:16:16;14.80;99.90
31131;DHT22;20292;50.944;4.034;2022-10-31T03:19:09;14.80;99.90
31131;DHT22;20292;50.944;4.034;2022-10-31T03:24:08;14.80;99.90
31131;DHT22;20292;50.944;4.034;2022-10-31T03:26:36;14.80;99.90
31131;DHT22;20292;50.944;4.034;2022-10-31T03:29:06;14.70;99.90
31131;DHT22;20292;50.944;4.034;2022-10-31T03:31:49;14.80;99.90
31131;DHT22;20292;50.944;4.034;2022-10-31T03:34:17;14.70;99.90
31131;DHT22;20292;50.944;4.034;2022-10-31T03:36:45;14.70;99.90
31131;DHT22;20292;50.944;4.034;2022-10-31T03:39:14;14.80;99.90
31131;DHT22;20292;50.944;4.034;2022-10-31T03:41:44;14.60;99.90
31131;DHT22;20292;50.944;4.034;2022-10-31T03:44:16;14.60;99.90
31131;DHT22;20292;50.944;4.034;2022-10-31T03:46:43;14.60;99.90
31131;DHT22;20292;50.944;4.034;2022-10-31T03:49:08;14.50;99.90
31131;DHT22;20292;50.944;4.034;2022-10-31T03:54:44;14.50;99.90
31131;DHT22;20292;50.944;4.034;2022-10-31T03:57:15;14.50;99.90
31131;DHT22;20292;50.944;4.034;2022-10-31T03:59:45;14.40;99.90
31131;DHT22;20292;50.944;4.034;2022-10-31T04:02:17;14.40;99.90
31131;DHT22;20292;50.944;4.034;2022-10-31T04:04:44;14.40;99.90
31131;DHT22;20292;50.944;4.034;2022-10-31T04:07:12;14.40;99.90
31131;DHT22;20292;50.944;4.034;2022-10-31T04:09:43;14.40;99.90
31131;DHT22;20292;50.944;4.034;2022-10-31T04:12:12;14.40;99.90
31131;DHT22;20292;50.944;4.034;2022-10-31T04:14:41;14.20;99.90
31131;DHT22;20292;50.944;4.034;2022-10-31T04:17:12;14.40;99.90
31131;DHT22;20292;50.944;4.034;2022-10-31T04:19:38;14.40;99.90
31131;DHT22;20292;50.944;4.034;2022-10-31T04:22:04;14.40;99.90
31131;DHT22;20292;50.944;4.034;2022-10-31T04:24:29;14.40;99.90
31131;DHT22;20292;50.944;4.034;2022-10-31T04:26:55;14.40;99.90
31131;DHT22;20292;50.944;4.034;2022-10-31T04:29:21;14.30;99.90
31131;DHT22;20292;50.944;4.034;2022-10-31T04:31:46;14.30;99.90
31131;DHT22;20292;50.944;4.034;2022-10-31T04:34:12;14.30;99.90
31131;DHT22;20292;50.944;4.034;2022-10-31T04:36:37;14.20;99.90
31131;DHT22;20292;50.944;4.034;2022-10-31T04:39:03;14.20;99.90
31131;DHT22;20292;50.944;4.034;2022-10-31T04:41:29;14.10;99.90
31131;DHT22;20292;50.944;4.034;2022-10-31T04:43:54;14.20;99.90
31131;DHT22;20292;50.944;4.034;2022-10-31T04:46:20;14.10;99.90
31131;DHT22;20292;50.944;4.034;2022-10-31T04:48:45;14.20;99.90
31131;DHT22;20292;50.944;4.034;2022-10-31T04:51:11;14.10;99.90
31131;DHT22;20292;50.944;4.034;2022-10-31T04:53:37;14.10;99.90
31131;DHT22;20292;50.944;4.034;2022-10-31T04:56:02;14.20;99.90
31131;DHT22;20292;50.944;4.034;2022-10-31T04:58:28;14.10;99.90
31131;DHT22;20292;50.944;4.034;2022-10-31T05:00:57;14.00;99.90
31131;DHT22;20292;50.944;4.034;2022-10-31T05:03:23;14.00;99.90
31131;DHT22;20292;50.944;4.034;2022-10-31T05:05:49;13.80;99.90
31131;DHT22;20292;50.944;4.034;2022-10-31T05:08:14;13.80;99.90
31131;DHT22;20292;50.944;4.034;2022-10-31T05:10:40;13.70;99.90
31131;DHT22;20292;50.944;4.034;2022-10-31T05:13:06;13.70;99.90
31131;DHT22;20292;50.944;4.034;2022-10-31T05:15:32;13.60;99.90
31131;DHT22;20292;50.944;4.034;2022-10-31T05:17:58;13.60;99.90
31131;DHT22;20292;50.944;4.034;2022-10-31T05:20:26;13.60;99.90
31131;DHT22;20292;50.944;4.034;2022-10-31T05:22:54;13.70;99.90
31131;DHT22;20292;50.944;4.034;2022-10-31T05:25:22;13.70;99.90
31131;DHT22;20292;50.944;4.034;2022-10-31T05:27:50;13.90;99.90
31131;DHT22;20292;50.944;4.034;2022-10-31T05:30:21;13.80;99.90
31131;DHT22;20292;50.944;4.034;2022-10-31T05:32:49;13.80;99.90
31131;DHT22;20292;50.944;4.034;2022-10-31T05:35:20;13.90;99.90
31131;DHT22;20292;50.944;4.034;2022-10-31T05:37:46;13.90;99.90
31131;DHT22;20292;50.944;4.034;2022-10-31T05:40:13;14.00;99.90
31131;DHT22;20292;50.944;4.034;2022-10-31T05:42:39;14.00;99.90
31131;DHT22;20292;50.944;4.034;2022-10-31T05:45:10;14.00;99.90
31131;DHT22;20292;50.944;4.034;2022-10-31T05:47:36;14.00;99.90
31131;DHT22;20292;50.944;4.034;2022-10-31T05:50:02;14.00;99.90
31131;DHT22;20292;50.944;4.034;2022-10-31T05:52:27;14.10;99.90
31131;DHT22;20292;50.944;4.034;2022-10-31T05:54:53;14.10;99.90
31131;DHT22;20292;50.944;4.034;2022-10-31T05:57:18;14.20;99.90
31131;DHT22;20292;50.944;4.034;2022-10-31T05:59:44;14.20;99.90
31131;DHT22;20292;50.944;4.034;2022-10-31T06:02:10;14.20;99.90
31131;DHT22;20292;50.944;4.034;2022-10-31T06:04:35;14.20;99.90
31131;DHT22;20292;50.944;4.034;2022-10-31T06:07:01;14.20;99.90
31131;DHT22;20292;50.944;4.034;2022-10-31T06:09:26;14.30;99.90
31131;DHT22;20292;50.944;4.034;2022-10-31T06:11:52;14.30;99.90
31131;DHT22;20292;50.944;4.034;2022-10-31T06:14:18;14.40;99.90
31131;DHT22;20292;50.944;4.034;2022-10-31T06:16:43;14.40;99.90
31131;DHT22;20292;50.944;4.034;2022-10-31T06:19:09;14.40;99.90
31131;DHT22;20292;50.944;4.034;2022-10-31T06:21:34;14.60;99.90
31131;DHT22;20292;50.944;4.034;2022-10-31T06:24:00;14.50;99.90
31131;DHT22;20292;50.944;4.034;2022-10-31T06:26:25;14.50;99.90
31131;DHT22;20292;50.944;4.034;2022-10-31T06:28:51;14.60;99.90
31131;DHT22;20292;50.944;4.034;2022-10-31T06:31:17;14.60;99.90
31131;DHT22;20292;50.944;4.034;2022-10-31T06:33:42;14.70;99.90
31131;DHT22;20292;50.944;4.034;2022-10-31T06:36:09;14.70;99.90
31131;DHT22;20292;50.944;4.034;2022-10-31T06:38:34;14.60;99.90
31131;DHT22;20292;50.944;4.034;2022-10-31T06:41:04;14.60;99.90
31131;DHT22;20292;50.944;4.034;2022-10-31T06:43:30;14.70;99.90
31131;DHT22;20292;50.944;4.034;2022-10-31T06:45:56;14.70;99.90
31131;DHT22;20292;50.944;4.034;2022-10-31T06:48:22;14.70;99.90
31131;DHT22;20292;50.944;4.034;2022-10-31T06:50:48;14.70;99.90
31131;DHT22;20292;50.944;4.034;2022-10-31T06:53:13;14.70;99.90
31131;DHT22;20292;50.944;4.034;2022-10-31T06:55:40;14.80;99.90
31131;DHT22;20292;50.944;4.034;2022-10-31T06:58:06;14.90;99.90
31131;DHT22;20292;50.944;4.034;2022-10-31T07:00:32;14.90;99.90
31131;DHT22;20292;50.944;4.034;2022-10-31T07:03:02;15.00;99.90
31131;DHT22;20292;50.944;4.034;2022-10-31T07:05:29;15.00;99.90
31131;DHT22;20292;50.944;4.034;2022-10-31T07:07:59;15.10;99.90
31131;DHT22;20292;50.944;4.034;2022-10-31T07:10:26;15.10;99.90
31131;DHT22;20292;50.944;4.034;2022-10-31T07:13:00;15.10;99.90
31131;DHT22;20292;50.944;4.034;2022-10-31T07:15:27;15.20;99.90
31131;DHT22;20292;50.944;4.034;2022-10-31T07:17:53;15.20;99.90
31131;DHT22;20292;50.944;4.034;2022-10-31T07:20:19;15.30;99.90
31131;DHT22;20292;50.944;4.034;2022-10-31T07:22:45;15.30;99.90
31131;DHT22;20292;50.944;4.034;2022-10-31T07:25:11;15.30;99.90
31131;DHT22;20292;50.944;4.034;2022-10-31T07:27:41;15.30;99.90
31131;DHT22;20292;50.944;4.034;2022-10-31T07:30:09;15.30;99.90
31131;DHT22;20292;50.944;4.034;2022-10-31T07:32:43;15.40;99.90
31131;DHT22;20292;50.944;4.034;2022-10-31T07:35:10;15.50;99.90
31131;DHT22;20292;50.944;4.034;2022-10-31T07:37:36;15.50;99.90
31131;DHT22;20292;50.944;4.034;2022-10-31T07:40:03;15.60;99.90
31131;DHT22;20292;50.944;4.034;2022-10-31T07:42:43;15.60;99.90
31131;DHT22;20292;50.944;4.034;2022-10-31T07:45:11;15.50;99.90
31131;DHT22;20292;50.944;4.034;2022-10-31T07:47:41;15.50;99.90
31131;DHT22;20292;50.944;4.034;2022-10-31T07:50:08;15.50;99.90
31131;DHT22;20292;50.944;4.034;2022-10-31T07:52:34;15.50;99.90
31131;DHT22;20292;50.944;4.034;2022-10-31T07:55:00;15.50;99.90
31131;DHT22;20292;50.944;4.034;2022-10-31T07:57:25;15.50;99.90
31131;DHT22;20292;50.944;4.034;2022-10-31T07:59:51;15.40;99.90
31131;DHT22;20292;50.944;4.034;2022-10-31T08:02:17;15.50;99.90
31131;DHT22;20292;50.944;4.034;2022-10-31T08:04:43;15.60;99.90
31131;DHT22;20292;50.944;4.034;2022-10-31T08:07:08;15.70;99.90
31131;DHT22;20292;50.944;4.034;2022-10-31T08:09:34;15.80;99.90
31131;DHT22;20292;50.944;4.034;2022-10-31T08:11:59;15.90;99.90
31131;DHT22;20292;50.944;4.034;2022-10-31T08:14:26;16.00;99.90
31131;DHT22;20292;50.944;4.034;2022-10-31T08:16:53;16.10;99.90
31131;DHT22;20292;50.944;4.034;2022-10-31T08:19:18;16.20;99.90
31131;DHT22;20292;50.944;4.034;2022-10-31T08:21:44;16.40;99.90
31131;DHT22;20292;50.944;4.034;2022-10-31T08:24:09;16.50;99.90
31131;DHT22;20292;50.944;4.034;2022-10-31T08:26:35;16.50;99.90
31131;DHT22;20292;50.944;4.034;2022-10-31T08:29:01;16.40;99.90
31131;DHT22;20292;50.944;4.034;2022-10-31T08:31:28;16.40;99.90
31131;DHT22;20292;50.944;4.034;2022-10-31T08:33:53;16.10;99.90
31131;DHT22;20292;50.944;4.034;2022-10-31T08:36:20;16.20;99.90
31131;DHT22;20292;50.944;4.034;2022-10-31T08:38:49;16.30;99.90
31131;DHT22;20292;50.944;4.034;2022-10-31T08:41:14;16.30;99.90
31131;DHT22;20292;50.944;4.034;2022-10-31T08:43:40;16.30;99.90
31131;DHT22;20292;50.944;4.034;2022-10-31T08:46:06;16.30;99.90
31131;DHT22;20292;50.944;4.034;2022-10-31T08:48:32;16.00;99.90
31131;DHT22;20292;50.944;4.034;2022-10-31T08:50:58;16.00;99.90
31131;DHT22;20292;50.944;4.034;2022-10-31T08:53:25;16.10;99.90
31131;DHT22;20292;50.944;4.034;2022-10-31T08:55:51;16.20;99.90
31131;DHT22;20292;50.944;4.034;2022-10-31T08:58:19;16.30;99.90
31131;DHT22;20292;50.944;4.034;2022-10-31T09:00:47;16.20;99.90
31131;DHT22;20292;50.944;4.034;2022-10-31T09:03:19;16.30;99.90
31131;DHT22;20292;50.944;4.034;2022-10-31T09:05:45;16.20;99.90
31131;DHT22;20292;50.944;4.034;2022-10-31T09:08:11;16.30;99.90
31131;DHT22;20292;50.944;4.034;2022-10-31T09:10:38;16.20;99.90
31131;DHT22;20292;50.944;4.034;2022-10-31T09:13:07;15.90;99.90
31131;DHT22;20292;50.944;4.034;2022-10-31T09:15:34;15.90;99.90
31131;DHT22;20292;50.944;4.034;2022-10-31T09:18:00;15.60;99.90
31131;DHT22;20292;50.944;4.034;2022-10-31T09:20:27;15.70;99.90
31131;DHT22;20292;50.944;4.034;2022-10-31T09:23:00;15.70;99.90
31131;DHT22;20292;50.944;4.034;2022-10-31T09:25:27;15.90;99.90
31131;DHT22;20292;50.944;4.034;2022-10-31T09:27:57;16.00;99.90
31131;DHT22;20292;50.944;4.034;2022-10-31T09:30:23;16.00;99.90
31131;DHT22;20292;50.944;4.034;2022-10-31T09:32:55;15.70;99.90
31131;DHT22;20292;50.944;4.034;2022-10-31T09:35:20;15.60;99.90
31131;DHT22;20292;50.944;4.034;2022-10-31T09:37:46;15.70;99.90
31131;DHT22;20292;50.944;4.034;2022-10-31T09:40:12;15.80;99.90
31131;DHT22;20292;50.944;4.034;2022-10-31T09:43:02;15.90;99.90
31131;DHT22;20292;50.944;4.034;2022-10-31T09:51:20;16.30;99.90
31131;DHT22;20292;50.944;4.034;2022-10-31T09:53:54;16.40;99.90
31131;DHT22;20292;50.944;4.034;2022-10-31T09:56:21;16.50;99.90
31131;DHT22;20292;50.944;4.034;2022-10-31T09:58:51;16.60;99.90
31131;DHT22;20292;50.944;4.034;2022-10-31T10:01:48;16.70;99.90
31131;DHT22;20292;50.944;4.034;2022-10-31T10:06:50;17.10;99.90
31131;DHT22;20292;50.944;4.034;2022-10-31T10:09:19;17.10;99.90
31131;DHT22;20292;50.944;4.034;2022-10-31T10:12:16;17.10;99.90
31131;DHT22;20292;50.944;4.034;2022-10-31T10:20:16;17.00;99.90
31131;DHT22;20292;50.944;4.034;2022-10-31T10:23:11;17.00;99.90
31131;DHT22;20292;50.944;4.034;2022-10-31T10:25:39;17.20;99.90
31131;DHT22;20292;50.944;4.034;2022-10-31T10:28:25;17.10;99.90
31131;DHT22;20292;50.944;4.034;2022-10-31T10:31:16;16.90;99.90
31131;DHT22;20292;50.944;4.034;2022-10-31T10:36:38;16.30;99.90
31131;DHT22;20292;50.944;4.034;2022-10-31T10:39:35;16.50;99.90
31131;DHT22;20292;50.944;4.034;2022-10-31T10:42:12;16.60;99.90
31131;DHT22;20292;50.944;4.034;2022-10-31T10:45:18;16.50;99.90
31131;DHT22;20292;50.944;4.034;2022-10-31T10:48:15;16.50;99.90
31131;DHT22;20292;50.944;4.034;2022-10-31T10:50:48;16.60;99.90
31131;DHT22;20292;50.944;4.034;2022-10-31T10:56:23;16.80;99.90
31131;DHT22;20292;50.944;4.034;2022-10-31T10:58:55;16.80;99.90
31131;DHT22;20292;50.944;4.034;2022-10-31T11:01:22;16.40;99.90
31131;DHT22;20292;50.944;4.034;2022-10-31T11:03:47;16.20;99.90
31131;DHT22;20292;50.944;4.034;2022-10-31T11:06:18;16.20;99.90
31131;DHT22;20292;50.944;4.034;2022-10-31T11:08:48;16.20;99.90
31131;DHT22;20292;50.944;4.034;2022-10-31T11:11:19;16.30;99.90
31131;DHT22;20292;50.944;4.034;2022-10-31T11:13:50;16.30;99.90
31131;DHT22;20292;50.944;4.034;2022-10-31T11:16:28;16.10;99.90
31131;DHT22;20292;50.944;4.034;2022-10-31T11:19:21;16.10;99.90
31131;DHT22;20292;50.944;4.034;2022-10-31T11:21:48;16.10;99.90
31131;DHT22;20292;50.944;4.034;2022-10-31T11:24:17;16.10;99.90
31131;DHT22;20292;50.944;4.034;2022-10-31T11:26:45;16.30;99.90
31131;DHT22;20292;50.944;4.034;2022-10-31T11:29:29;16.50;99.90
31131;DHT22;20292;50.944;4.034;2022-10-31T11:31:56;16.80;99.90
31131;DHT22;20292;50.944;4.034;2022-10-31T11:34:30;16.90;99.90
31131;DHT22;20292;50.944;4.034;2022-10-31T11:37:01;16.80;99.90
31131;DHT22;20292;50.944;4.034;2022-10-31T11:39:28;16.70;99.90
31131;DHT22;20292;50.944;4.034;2022-10-31T11:41:54;16.80;99.90
31131;DHT22;20292;50.944;4.034;2022-10-31T11:44:28;16.80;99.90
31131;DHT22;20292;50.944;4.034;2022-10-31T11:46:57;16.50;99.90
31131;DHT22;20292;50.944;4.034;2022-10-31T11:51:58;16.50;99.90
31131;DHT22;20292;50.944;4.034;2022-10-31T11:54:35;16.50;99.90
31131;DHT22;20292;50.944;4.034;2022-10-31T11:57:02;16.70;99.90
31131;DHT22;20292;50.944;4.034;2022-10-31T11:59:30;16.70;99.90
31131;DHT22;20292;50.944;4.034;2022-10-31T12:01:59;17.00;99.90
31131;DHT22;20292;50.944;4.034;2022-10-31T12:04:35;16.90;99.90
31131;DHT22;20292;50.944;4.034;2022-10-31T12:07:02;16.80;99.90
31131;DHT22;20292;50.944;4.034;2022-10-31T12:09:30;16.70;99.90
31131;DHT22;20292;50.944;4.034;2022-10-31T12:17:00;16.90;99.90
31131;DHT22;20292;50.944;4.034;2022-10-31T12:25:14;17.10;99.90
31131;DHT22;20292;50.944;4.034;2022-10-31T12:30:40;17.40;99.90
31131;DHT22;20292;50.944;4.034;2022-10-31T12:36:10;17.60;99.90
31131;DHT22;20292;50.944;4.034;2022-10-31T12:44:36;18.00;99.90
31131;DHT22;20292;50.944;4.034;2022-10-31T12:47:42;17.80;99.90
31131;DHT22;20292;50.944;4.034;2022-10-31T12:55:58;17.60;99.90
31131;DHT22;20292;50.944;4.034;2022-10-31T12:58:40;17.70;99.90
31131;DHT22;20292;50.944;4.034;2022-10-31T13:01:11;17.70;99.90
31131;DHT22;20292;50.944;4.034;2022-10-31T13:06:37;17.70;99.90
31131;DHT22;20292;50.944;4.034;2022-10-31T13:09:10;17.70;99.90
31131;DHT22;20292;50.944;4.034;2022-10-31T13:11:56;17.70;99.90
31131;DHT22;20292;50.944;4.034;2022-10-31T13:14:27;17.90;99.90
31131;DHT22;20292;50.944;4.034;2022-10-31T13:16:55;18.20;99.90
31131;DHT22;20292;50.944;4.034;2022-10-31T13:19:38;18.20;99.90
31131;DHT22;20292;50.944;4.034;2022-10-31T13:22:23;18.20;99.90
31131;DHT22;20292;50.944;4.034;2022-10-31T13:25:03;18.30;99.90
31131;DHT22;20292;50.944;4.034;2022-10-31T13:28:03;18.40;99.90
31131;DHT22;20292;50.944;4.034;2022-10-31T13:30:33;18.50;99.90
31131;DHT22;20292;50.944;4.034;2022-10-31T13:33:04;18.50;99.90
31131;DHT22;20292;50.944;4.034;2022-10-31T13:35:40;18.50;99.90
31131;DHT22;20292;50.944;4.034;2022-10-31T13:38:22;18.60;99.90
31131;DHT22;20292;50.944;4.034;2022-10-31T13:46:34;18.50;99.90
31131;DHT22;20292;50.944;4.034;2022-10-31T13:48:59;18.60;99.90
31131;DHT22;20292;50.944;4.034;2022-10-31T13:51:28;18.90;99.90
31131;DHT22;20292;50.944;4.034;2022-10-31T13:56:33;19.00;99.90
31131;DHT22;20292;50.944;4.034;2022-10-31T14:01:33;18.90;99.90
31131;DHT22;20292;50.944;4.034;2022-10-31T14:04:12;18.90;99.90
31131;DHT22;20292;50.944;4.034;2022-10-31T14:12:25;19.10;99.90
31131;DHT22;20292;50.944;4.034;2022-10-31T14:14:55;19.10;99.90
31131;DHT22;20292;50.944;4.034;2022-10-31T14:17:25;19.00;99.90
31131;DHT22;20292;50.944;4.034;2022-10-31T14:22:37;19.00;99.90
31131;DHT22;20292;50.944;4.034;2022-10-31T14:25:25;18.90;99.90
31131;DHT22;20292;50.944;4.034;2022-10-31T14:27:51;18.90;99.90
31131;DHT22;20292;50.944;4.034;2022-10-31T14:30:20;18.90;99.90
31131;DHT22;20292;50.944;4.034;2022-10-31T14:33:16;18.90;99.90
31131;DHT22;20292;50.944;4.034;2022-10-31T14:36:04;18.90;99.90
31131;DHT22;20292;50.944;4.034;2022-10-31T14:38:50;18.90;99.90
31131;DHT22;20292;50.944;4.034;2022-10-31T14:46:50;19.00;99.90
31131;DHT22;20292;50.944;4.034;2022-10-31T14:49:43;18.90;99.90
31131;DHT22;20292;50.944;4.034;2022-10-31T14:52:13;18.80;99.90
31131;DHT22;20292;50.944;4.034;2022-10-31T14:54:53;18.70;99.90
31131;DHT22;20292;50.944;4.034;2022-10-31T14:57:27;18.70;99.90
31131;DHT22;20292;50.944;4.034;2022-10-31T14:59:57;18.70;99.90
31131;DHT22;20292;50.944;4.034;2022-10-31T15:02:31;18.70;99.90
31131;DHT22;20292;50.944;4.034;2022-10-31T15:05:09;18.60;99.90
31131;DHT22;20292;50.944;4.034;2022-10-31T15:07:35;18.70;99.90
31131;DHT22;20292;50.944;4.034;2022-10-31T15:10:18;18.60;99.90
31131;DHT22;20292;50.944;4.034;2022-10-31T15:12:45;18.60;99.90
31131;DHT22;20292;50.944;4.034;2022-10-31T15:15:12;18.60;99.90
31131;DHT22;20292;50.944;4.034;2022-10-31T15:17:44;18.60;99.90
31131;DHT22;20292;50.944;4.034;2022-10-31T15:20:12;18.60;99.90
31131;DHT22;20292;50.944;4.034;2022-10-31T15:22:42;18.50;99.90
31131;DHT22;20292;50.944;4.034;2022-10-31T15:25:19;18.50;99.90
31131;DHT22;20292;50.944;4.034;2022-10-31T15:27:46;18.40;99.90
31131;DHT22;20292;50.944;4.034;2022-10-31T15:30:29;18.50;99.90
31131;DHT22;20292;50.944;4.034;2022-10-31T15:32:55;18.50;99.90
31131;DHT22;20292;50.944;4.034;2022-10-31T15:35:24;18.60;99.90
31131;DHT22;20292;50.944;4.034;2022-10-31T15:37:54;18.60;99.90
31131;DHT22;20292;50.944;4.034;2022-10-31T15:40:24;18.60;99.90
31131;DHT22;20292;50.944;4.034;2022-10-31T15:42:54;18.60;99.90
31131;DHT22;20292;50.944;4.034;2022-10-31T15:45:26;18.70;99.90
31131;DHT22;20292;50.944;4.034;2022-10-31T15:47:55;18.70;99.90
31131;DHT22;20292;50.944;4.034;2022-10-31T15:52:58;18.80;99.90
31131;DHT22;20292;50.944;4.034;2022-10-31T15:55:26;18.80;99.90
31131;DHT22;20292;50.944;4.034;2022-10-31T15:57:57;18.90;99.90
31131;DHT22;20292;50.944;4.034;2022-10-31T16:00:32;18.80;99.90
31131;DHT22;20292;50.944;4.034;2022-10-31T16:05:53;18.90;99.90
31131;DHT22;20292;50.944;4.034;2022-10-31T16:13:35;18.60;99.90
31131;DHT22;20292;50.944;4.034;2022-10-31T16:16:04;18.50;99.90
31131;DHT22;20292;50.944;4.034;2022-10-31T16:18:37;18.50;99.90
31131;DHT22;20292;50.944;4.034;2022-10-31T16:21:06;18.30;99.90
31131;DHT22;20292;50.944;4.034;2022-10-31T16:23:32;18.10;99.90
31131;DHT22;20292;50.944;4.034;2022-10-31T16:25:57;18.00;99.90
31131;DHT22;20292;50.944;4.034;2022-10-31T16:28:27;18.10;99.90
31131;DHT22;20292;50.944;4.034;2022-10-31T16:30:56;18.30;99.90
31131;DHT22;20292;50.944;4.034;2022-10-31T16:33:35;18.40;99.90
31131;DHT22;20292;50.944;4.034;2022-10-31T16:38:53;18.30;99.90
31131;DHT22;20292;50.944;4.034;2022-10-31T16:41:19;18.20;99.90
31131;DHT22;20292;50.944;4.034;2022-10-31T16:43:45;18.20;99.90
31131;DHT22;20292;50.944;4.034;2022-10-31T16:46:24;18.30;99.90
31131;DHT22;20292;50.944;4.034;2022-10-31T16:48:51;18.20;99.90
31131;DHT22;20292;50.944;4.034;2022-10-31T16:51:17;18.20;99.90
31131;DHT22;20292;50.944;4.034;2022-10-31T16:53:43;18.10;99.90
31131;DHT22;20292;50.944;4.034;2022-10-31T16:56:17;18.00;99.90
31131;DHT22;20292;50.944;4.034;2022-10-31T16:58:43;17.90;99.90
31131;DHT22;20292;50.944;4.034;2022-10-31T17:01:09;17.90;99.90
31131;DHT22;20292;50.944;4.034;2022-10-31T17:03:36;17.90;99.90
31131;DHT22;20292;50.944;4.034;2022-10-31T17:06:02;17.80;99.90
31131;DHT22;20292;50.944;4.034;2022-10-31T17:08:27;17.90;99.90
31131;DHT22;20292;50.944;4.034;2022-10-31T17:10:54;18.00;99.90
31131;DHT22;20292;50.944;4.034;2022-10-31T17:13:24;18.00;99.90
31131;DHT22;20292;50.944;4.034;2022-10-31T17:15:52;18.00;99.90
31131;DHT22;20292;50.944;4.034;2022-10-31T17:18:19;18.10;99.90
31131;DHT22;20292;50.944;4.034;2022-10-31T17:20:45;18.10;99.90
31131;DHT22;20292;50.944;4.034;2022-10-31T17:23:13;18.00;99.90
31131;DHT22;20292;50.944;4.034;2022-10-31T17:25:39;18.20;99.90
31131;DHT22;20292;50.944;4.034;2022-10-31T17:28:05;18.00;99.90
31131;DHT22;20292;50.944;4.034;2022-10-31T17:30:31;17.90;99.90
31131;DHT22;20292;50.944;4.034;2022-10-31T17:32:57;18.00;99.90
31131;DHT22;20292;50.944;4.034;2022-10-31T17:35:22;18.00;99.90
31131;DHT22;20292;50.944;4.034;2022-10-31T17:37:48;18.00;99.90
31131;DHT22;20292;50.944;4.034;2022-10-31T17:40:19;18.00;99.90
31131;DHT22;20292;50.944;4.034;2022-10-31T17:42:53;17.90;99.90
31131;DHT22;20292;50.944;4.034;2022-10-31T17:45:19;17.90;99.90
31131;DHT22;20292;50.944;4.034;2022-10-31T17:47:47;17.90;99.90